1858 Hurricane NOT_NAMED (1858257N15325)


IBTrACS version v04r00. Visit IBTrACS website for data access.
Please direct all questions to the IBTrACS Q and A forum

Storm track - Intensity - Wind Radii - Intensity Data - Source Data - All data

Summary Information

Storm ID 1858257N15325
Start Sep 13 12Z
Max Intensity 75 kt (Sep 19 00Z), 991 mb (Sep 17 06Z)
End Sep 24 12Z
ATCF IDs
Track status Best track data.

Storm track plot

Map of storm track

Intensity plots

Map of storm track

Radial wind information

No radial wind information for this storm


Position and Intensity Table

BASIN ISO_TIME_________ NATURE LAT LON MLC WIND MLC PRES
degrees north degrees east kts mb
NA 1858-09-13 12:00:00 TS 14.50 -35.50 30
NA 15:00:00 TS 14.70 -35.86 30
NA 18:00:00 TS 14.90 -36.20 30
NA 21:00:00 TS 15.10 -36.51 30
NA 1858-09-14 00:00:00 TS 15.30 -36.80 30
NA 03:00:00 TS 15.51 -37.10 30
NA 06:00:00 TS 15.70 -37.40 30
NA 09:00:00 TS 15.84 -37.68 30
NA 12:00:00 TS 16.00 -38.00 30
NA 15:00:00 TS 16.24 -38.43 30
NA 18:00:00 TS 16.50 -38.90 30
NA 21:00:00 TS 16.75 -39.35 30
NA 1858-09-15 00:00:00 TS 17.00 -39.80 30
NA 03:00:00 TS 17.26 -40.26 30
NA 06:00:00 TS 17.50 -40.70 30
NA 09:00:00 TS 17.68 -41.09 32
NA 12:00:00 TS 17.90 -41.50 35
NA 15:00:00 TS 18.23 -42.06 37
NA 18:00:00 TS 18.60 -42.60 40
NA 21:00:00 TS 18.95 -42.98 42
NA 1858-09-16 00:00:00 TS 19.30 -43.30 45
NA 03:00:00 TS 19.65 -43.67 47
NA 06:00:00 TS 20.00 -44.00 50
NA 09:00:00 TS 20.35 -44.22 52
NA 12:00:00 TS 20.70 -44.40 55
NA 15:00:00 TS 21.05 -44.61 57
NA 18:00:00 TS 21.40 -44.80 60
NA 21:00:00 TS 21.76 -44.97 60
NA 1858-09-17 00:00:00 TS 22.10 -45.10 60
NA 03:00:00 TS 22.41 -45.22 62
NA 06:00:00 TS 22.70 -45.30 65 991
NA 09:00:00 TS 23.01 -45.31 65
NA 12:00:00 TS 23.30 -45.30 65
NA 15:00:00 TS 23.55 -45.35 65
NA 18:00:00 TS 23.80 -45.40 65
NA 21:00:00 TS 24.10 -45.41 67
NA 1858-09-18 00:00:00 TS 24.40 -45.40 70
NA 03:00:00 TS 24.65 -45.40 70
NA 06:00:00 TS 24.90 -45.40 70
NA 09:00:00 TS 25.20 -45.40 70
NA 12:00:00 TS 25.50 -45.40 70
NA 15:00:00 TS 25.75 -45.40 70
NA 18:00:00 TS 26.00 -45.40 70
NA 21:00:00 TS 26.30 -45.41 72
NA 1858-09-19 00:00:00 TS 26.60 -45.40 75
NA 03:00:00 TS 26.85 -45.36 75
NA 06:00:00 TS 27.10 -45.30 75
NA 09:00:00 TS 27.40 -45.25 75
NA 12:00:00 TS 27.70 -45.20 75
NA 15:00:00 TS 27.95 -45.16 75
NA 18:00:00 TS 28.20 -45.10 75
NA 21:00:00 TS 28.50 -45.01 75
NA 1858-09-20 00:00:00 TS 28.80 -44.90 75
NA 03:00:00 TS 29.05 -44.80 75
NA 06:00:00 TS 29.30 -44.70 75
NA 09:00:00 TS 29.60 -44.61 75
NA 12:00:00 TS 29.90 -44.50 75
NA 15:00:00 TS 30.15 -44.36 75
NA 18:00:00 TS 30.40 -44.20 75
NA 21:00:00 TS 30.70 -44.04 75
NA 1858-09-21 00:00:00 TS 31.00 -43.90 75
NA 03:00:00 TS 31.26 -43.79 75
NA 06:00:00 TS 31.50 -43.70 75
NA 09:00:00 TS 31.75 -43.61 75
NA 12:00:00 TS 32.00 -43.50 75
NA 15:00:00 TS 32.25 -43.36 75
NA 18:00:00 TS 32.50 -43.20 75
NA 21:00:00 TS 32.75 -43.01 72
NA 1858-09-22 00:00:00 TS 33.00 -42.80 70
NA 03:00:00 TS 33.25 -42.60 70
NA 06:00:00 TS 33.50 -42.40 70
NA 09:00:00 TS 33.72 -42.24 67
NA 12:00:00 TS 34.00 -42.00 65
NA 15:00:00 TS 34.42 -41.55 62
NA 18:00:00 TS 34.90 -41.00 60
NA 21:00:00 TS 35.36 -40.50 57
NA 1858-09-23 00:00:00 TS 35.80 -40.00 55
NA 03:00:00 TS 36.20 -39.50 52
NA 06:00:00 TS 36.60 -39.00 50
NA 09:00:00 TS 37.01 -38.55 47
NA 12:00:00 ET 37.50 -38.00 45
NA 15:00:00 ET 38.13 -37.21 42
NA 18:00:00 ET 38.80 -36.30 40
NA 21:00:00 ET 39.40 -35.41 40
NA 1858-09-24 00:00:00 ET 40.00 -34.50 40
NA 03:00:00 ET 40.65 -33.59 37
NA 06:00:00 ET 41.30 -32.70 35
NA 09:00:00 ET 41.91 -31.84 35
NA 12:00:00 ET 42.50 -31.00 35

Source Information

Agency Information
USA
TOKYO
CMA
HKO
NEWDELHI
REUNION
BOM
NADI
WELLINGTON
DS824
TD9636
TD9635
NEUMANN
MLC

All available IBTrACS Data

SEASON BASIN SUBBASIN ISO_TIME_________ NATURE LAT LON DIST2LAND LANDFALL IFLAG USA SSHS MLC LAT MLC LON MLC CLASS MLC WIND MLC PRES STORM SPEED STORM DIR
Year degrees north degrees east km km 1 degrees north degrees east kts mb kts degrees
1858 NA NA 1858-09-13 12:00:00 TS 14.50 -35.50 1937 1937 _____________O -1 14.50 -35.50 TD 30 8 300
1858 NA NA 15:00:00 TS 14.70 -35.86 1979 1979 _____________P -1 14.70 -35.86 TD 30 8 301
1858 NA NA 18:00:00 TS 14.90 -36.20 2010 2010 _____________O -1 14.90 -36.20 TD 30 7 303
1858 NA NA 21:00:00 TS 15.10 -36.51 2022 2009 _____________P -1 15.10 -36.51 TD 30 7 305
1858 NA NA 1858-09-14 00:00:00 TS 15.30 -36.80 2009 1997 _____________O -1 15.30 -36.80 TD 30 7 305
1858 NA NA 03:00:00 TS 15.51 -37.10 1997 1985 _____________P -1 15.51 -37.10 TD 30 7 305
1858 NA NA 06:00:00 TS 15.70 -37.40 1985 1967 _____________O -1 15.70 -37.40 TD 30 7 301
1858 NA NA 09:00:00 TS 15.84 -37.68 1967 1957 _____________P -1 15.84 -37.68 TD 30 7 297
1858 NA NA 12:00:00 TS 16.00 -38.00 1957 1940 _____________O -1 16.00 -38.00 TD 30 8 299
1858 NA NA 15:00:00 TS 16.24 -38.43 1940 1923 _____________P -1 16.24 -38.43 TD 30 10 300
1858 NA NA 18:00:00 TS 16.50 -38.90 1923 1908 _____________O -1 16.50 -38.90 TD 30 10 300
1858 NA NA 21:00:00 TS 16.75 -39.35 1901 1895 _____________P -1 16.75 -39.35 TD 30 10 300
1858 NA NA 1858-09-15 00:00:00 TS 17.00 -39.80 1896 1883 _____________O -1 17.00 -39.80 TD 30 10 300
1858 NA NA 03:00:00 TS 17.26 -40.26 1886 1874 _____________P -1 17.26 -40.26 TD 30 10 300
1858 NA NA 06:00:00 TS 17.50 -40.70 1876 1864 _____________O -1 17.50 -40.70 TD 30 9 298
1858 NA NA 09:00:00 TS 17.68 -41.09 1867 1857 _____________P -1 17.68 -41.09 TD 32 9 298
1858 NA NA 12:00:00 TS 17.90 -41.50 1859 1853 _____________O -1 17.90 -41.50 TS 35 11 300
1858 NA NA 15:00:00 TS 18.23 -42.06 1849 1847 _____________P -1 18.23 -42.06 TS 37 13 304
1858 NA NA 18:00:00 TS 18.60 -42.60 1852 1845 _____________O -1 18.60 -42.60 TS 40 11 310
1858 NA NA 21:00:00 TS 18.95 -42.98 1854 1854 _____________P -1 18.95 -42.98 TS 42 10 317
1858 NA NA 1858-09-16 00:00:00 TS 19.30 -43.30 1873 1873 _____________O -1 19.30 -43.30 TS 45 10 317
1858 NA NA 03:00:00 TS 19.65 -43.67 1888 1882 _____________P -1 19.65 -43.67 TS 47 10 317
1858 NA NA 06:00:00 TS 20.00 -44.00 1900 1900 _____________O -1 20.00 -44.00 TS 50 9 324
1858 NA NA 09:00:00 TS 20.35 -44.22 1919 1919 _____________P -1 20.35 -44.22 TS 52 8 332
1858 NA NA 12:00:00 TS 20.70 -44.40 1948 1948 _____________O -1 20.70 -44.40 TS 55 8 333
1858 NA NA 15:00:00 TS 21.05 -44.61 1977 1967 _____________P -1 21.05 -44.61 TS 57 8 332
1858 NA NA 18:00:00 TS 21.40 -44.80 1998 1998 _____________O -1 21.40 -44.80 TS 60 8 335
1858 NA NA 21:00:00 TS 21.76 -44.97 2029 2029 _____________P -1 21.76 -44.97 TS 60 8 338
1858 NA NA 1858-09-17 00:00:00 TS 22.10 -45.10 2055 2055 _____________O -1 22.10 -45.10 TS 60 7 340
1858 NA NA 03:00:00 TS 22.41 -45.22 2081 2081 _____________P -1 22.41 -45.22 TS 62 6 343
1858 NA NA 06:00:00 TS 22.70 -45.30 2107 2107 _____________O -1 22.70 -45.30 HU 65 991 6 352
1858 NA NA 09:00:00 TS 23.01 -45.31 2138 2138 _____________P -1 23.01 -45.31 HU 65 6 1
1858 NA NA 12:00:00 TS 23.30 -45.30 2168 2168 _____________O -1 23.30 -45.30 HU 65 5 356
1858 NA NA 15:00:00 TS 23.55 -45.35 2183 2173 _____________P -1 23.55 -45.35 HU 65 5 350
1858 NA NA 18:00:00 TS 23.80 -45.40 2177 2177 _____________O -1 23.80 -45.40 HU 65 6 355
1858 NA NA 21:00:00 TS 24.10 -45.41 2185 2185 _____________P -1 24.10 -45.41 HU 67 6 0
1858 NA NA 1858-09-18 00:00:00 TS 24.40 -45.40 2193 2193 _____________O -1 24.40 -45.40 HU 70 6 0
1858 NA NA 03:00:00 TS 24.65 -45.40 2201 2198 _____________P -1 24.65 -45.40 HU 70 5 2
1858 NA NA 06:00:00 TS 24.90 -45.40 2207 2207 _____________O -1 24.90 -45.40 HU 70 6 0
1858 NA NA 09:00:00 TS 25.20 -45.40 2216 2216 _____________P -1 25.20 -45.40 HU 70 6 359
1858 NA NA 12:00:00 TS 25.50 -45.40 2225 2225 _____________O -1 25.50 -45.40 HU 70 6 0
1858 NA NA 15:00:00 TS 25.75 -45.40 2235 2232 _____________P -1 25.75 -45.40 HU 70 5 2
1858 NA NA 18:00:00 TS 26.00 -45.40 2242 2242 _____________O -1 26.00 -45.40 HU 70 6 0
1858 NA NA 21:00:00 TS 26.30 -45.41 2252 2252 _____________P -1 26.30 -45.41 HU 72 6 1
1858 NA NA 1858-09-19 00:00:00 TS 26.60 -45.40 2263 2263 _____________O -1 26.60 -45.40 HU 75 6 4
1858 NA NA 03:00:00 TS 26.85 -45.36 2275 2271 _____________P -1 26.85 -45.36 HU 75 5 10
1858 NA NA 06:00:00 TS 27.10 -45.30 2279 2247 _____________O -1 27.10 -45.30 HU 75 6 10
1858 NA NA 09:00:00 TS 27.40 -45.25 2249 2217 _____________P -1 27.40 -45.25 HU 75 6 8
1858 NA NA 12:00:00 TS 27.70 -45.20 2217 2196 _____________O -1 27.70 -45.20 HU 75 6 8
1858 NA NA 15:00:00 TS 27.95 -45.16 2196 2167 _____________P -1 27.95 -45.16 HU 75 5 10
1858 NA NA 18:00:00 TS 28.20 -45.10 2167 2137 _____________O -1 28.20 -45.10 HU 75 6 13
1858 NA NA 21:00:00 TS 28.50 -45.01 2137 2108 _____________P -1 28.50 -45.01 HU 75 6 16
1858 NA NA 1858-09-20 00:00:00 TS 28.80 -44.90 2108 2090 _____________O -1 28.80 -44.90 HU 75 6 18
1858 NA NA 03:00:00 TS 29.05 -44.80 2090 2061 _____________P -1 29.05 -44.80 HU 75 5 20
1858 NA NA 06:00:00 TS 29.30 -44.70 2061 2033 _____________O -1 29.30 -44.70 HU 75 6 17
1858 NA NA 09:00:00 TS 29.60 -44.61 2033 2004 _____________P -1 29.60 -44.61 HU 75 6 16
1858 NA NA 12:00:00 TS 29.90 -44.50 2004 1987 _____________O -1 29.90 -44.50 HU 75 6 21
1858 NA NA 15:00:00 TS 30.15 -44.36 1976 1962 _____________P -1 30.15 -44.36 HU 75 6 28
1858 NA NA 18:00:00 TS 30.40 -44.20 1962 1934 _____________O -1 30.40 -44.20 HU 75 6 26
1858 NA NA 21:00:00 TS 30.70 -44.04 1937 1910 _____________P -1 30.70 -44.04 HU 75 7 23
1858 NA NA 1858-09-21 00:00:00 TS 31.00 -43.90 1910 1893 _____________O -1 31.00 -43.90 HU 75 6 21
1858 NA NA 03:00:00 TS 31.26 -43.79 1883 1866 _____________P -1 31.26 -43.79 HU 75 5 19
1858 NA NA 06:00:00 TS 31.50 -43.70 1866 1849 _____________O -1 31.50 -43.70 HU 75 5 18
1858 NA NA 09:00:00 TS 31.75 -43.61 1849 1822 _____________P -1 31.75 -43.61 HU 75 5 19
1858 NA NA 12:00:00 TS 32.00 -43.50 1822 1806 _____________O -1 32.00 -43.50 HU 75 5 22
1858 NA NA 15:00:00 TS 32.25 -43.36 1806 1783 _____________P -1 32.25 -43.36 HU 75 6 27
1858 NA NA 18:00:00 TS 32.50 -43.20 1783 1767 _____________O -1 32.50 -43.20 HU 75 6 31
1858 NA NA 21:00:00 TS 32.75 -43.01 1761 1750 _____________P -1 32.75 -43.01 HU 72 6 34
1858 NA NA 1858-09-22 00:00:00 TS 33.00 -42.80 1750 1734 _____________O -1 33.00 -42.80 HU 70 6 34
1858 NA NA 03:00:00 TS 33.25 -42.60 1739 1718 _____________P -1 33.25 -42.60 HU 70 6 34
1858 NA NA 06:00:00 TS 33.50 -42.40 1718 1703 _____________O -1 33.50 -42.40 HU 70 6 32
1858 NA NA 09:00:00 TS 33.72 -42.24 1707 1688 _____________P -1 33.72 -42.24 HU 67 6 34
1858 NA NA 12:00:00 TS 34.00 -42.00 1688 1669 _____________O -1 34.00 -42.00 HU 65 9 40
1858 NA NA 15:00:00 TS 34.42 -41.55 1673 1651 _____________P -1 34.42 -41.55 HU 62 12 43
1858 NA NA 18:00:00 TS 34.90 -41.00 1652 1636 _____________O -1 34.90 -41.00 TS 60 13 42
1858 NA NA 21:00:00 TS 35.36 -40.50 1633 1619 _____________P -1 35.36 -40.50 TS 57 12 42
1858 NA NA 1858-09-23 00:00:00 TS 35.80 -40.00 1625 1613 _____________O -1 35.80 -40.00 TS 55 12 44
1858 NA NA 03:00:00 TS 36.20 -39.50 1618 1608 _____________P -1 36.20 -39.50 TS 52 11 45
1858 NA NA 06:00:00 TS 36.60 -39.00 1614 1606 _____________O -1 36.60 -39.00 TS 50 11 43
1858 NA NA 09:00:00 TS 37.01 -38.55 1606 1599 _____________P -1 37.01 -38.55 TS 47 12 42
1858 NA NA 12:00:00 ET 37.50 -38.00 1604 1599 _____________O -1 37.50 -38.00 EX 45 15 44
1858 NA NA 15:00:00 ET 38.13 -37.21 1608 1601 _____________P -1 38.13 -37.21 EX 42 19 46
1858 NA NA 18:00:00 ET 38.80 -36.30 1617 1617 _____________O -1 38.80 -36.30 EX 40 19 48
1858 NA NA 21:00:00 ET 39.40 -35.41 1639 1639 _____________P -1 39.40 -35.41 EX 40 18 49
1858 NA NA 1858-09-24 00:00:00 ET 40.00 -34.50 1664 1664 _____________O -1 40.00 -34.50 EX 40 19 48
1858 NA NA 03:00:00 ET 40.65 -33.59 1689 1689 _____________P -1 40.65 -33.59 EX 37 19 46
1858 NA NA 06:00:00 ET 41.30 -32.70 1712 1712 _____________O -1 41.30 -32.70 EX 35 18 46
1858 NA NA 09:00:00 ET 41.91 -31.84 1745 1745 _____________P -1 41.91 -31.84 EX 35 17 47
1858 NA NA 12:00:00 ET 42.50 -31.00 1761 _____________O -1 42.50 -31.00 EX 35 17 47